sensor_id;sensor_type;location;lat;lon;timestamp;pressure;altitude;pressure_sealevel;temperature;humidity
3294;BME280;1659;51.470;6.770;2022-07-06T00:01:38;102297.28;;;14.99;56.99
3294;BME280;1659;51.470;6.770;2022-07-06T00:04:05;102292.88;;;14.98;57.23
3294;BME280;1659;51.470;6.770;2022-07-06T00:06:32;102291.97;;;14.97;57.30
3294;BME280;1659;51.470;6.770;2022-07-06T00:09:01;102293.78;;;14.95;57.31
3294;BME280;1659;51.470;6.770;2022-07-06T00:11:27;102296.47;;;14.94;57.54
3294;BME280;1659;51.470;6.770;2022-07-06T00:13:54;102295.63;;;14.90;57.56
3294;BME280;1659;51.470;6.770;2022-07-06T00:16:22;102288.56;;;14.87;57.42
3294;BME280;1659;51.470;6.770;2022-07-06T00:18:49;102292.16;;;14.83;57.48
3294;BME280;1659;51.470;6.770;2022-07-06T00:21:16;102295.75;;;14.79;57.52
3294;BME280;1659;51.470;6.770;2022-07-06T00:23:43;102286.94;;;14.74;57.88
3294;BME280;1659;51.470;6.770;2022-07-06T00:26:11;102291.44;;;14.70;57.73
3294;BME280;1659;51.470;6.770;2022-07-06T00:28:38;102291.47;;;14.66;58.03
3294;BME280;1659;51.470;6.770;2022-07-06T00:31:05;102293.28;;;14.64;58.04
3294;BME280;1659;51.470;6.770;2022-07-06T00:33:32;102301.25;;;14.62;57.89
3294;BME280;1659;51.470;6.770;2022-07-06T00:35:58;102291.53;;;14.57;58.44
3294;BME280;1659;51.470;6.770;2022-07-06T00:38:25;102288.06;;;14.50;58.36
3294;BME280;1659;51.470;6.770;2022-07-06T00:40:52;102289.88;;;14.46;58.52
3294;BME280;1659;51.470;6.770;2022-07-06T00:43:20;102291.69;;;14.43;58.69
3294;BME280;1659;51.470;6.770;2022-07-06T00:45:47;102286.38;;;14.41;58.60
3294;BME280;1659;51.470;6.770;2022-07-06T00:48:14;102292.63;;;14.39;58.60
3294;BME280;1659;51.470;6.770;2022-07-06T00:50:40;102294.44;;;14.35;58.78
3294;BME280;1659;51.470;6.770;2022-07-06T00:53:07;102289.16;;;14.30;58.61
3294;BME280;1659;51.470;6.770;2022-07-06T00:55:37;102291.84;;;14.29;59.11
3294;BME280;1659;51.470;6.770;2022-07-06T00:58:05;102294.50;;;14.26;58.88
3294;BME280;1659;51.470;6.770;2022-07-06T01:00:34;102297.16;;;14.26;59.10
3294;BME280;1659;51.470;6.770;2022-07-06T01:03:01;102298.97;;;14.24;59.16
3294;BME280;1659;51.470;6.770;2022-07-06T01:05:28;102300.78;;;14.20;59.37
3294;BME280;1659;51.470;6.770;2022-07-06T01:07:55;102304.38;;;14.18;58.99
3294;BME280;1659;51.470;6.770;2022-07-06T01:10:22;102302.59;;;14.16;59.12
3294;BME280;1659;51.470;6.770;2022-07-06T01:12:49;102301.72;;;14.14;59.59
3294;BME280;1659;51.470;6.770;2022-07-06T01:15:17;102299.94;;;14.13;59.55
3294;BME280;1659;51.470;6.770;2022-07-06T01:17:45;102302.59;;;14.13;59.73
3294;BME280;1659;51.470;6.770;2022-07-06T01:20:14;102297.28;;;14.13;59.40
3294;BME280;1659;51.470;6.770;2022-07-06T01:22:42;102302.66;;;14.12;59.64
3294;BME280;1659;51.470;6.770;2022-07-06T01:25:09;102289.38;;;14.09;59.70
3294;BME280;1659;51.470;6.770;2022-07-06T01:27:37;102292.03;;;14.09;59.94
3294;BME280;1659;51.470;6.770;2022-07-06T01:30:05;102300.91;;;14.06;60.05
3294;BME280;1659;51.470;6.770;2022-07-06T01:32:32;102304.47;;;14.05;59.92
3294;BME280;1659;51.470;6.770;2022-07-06T01:34:59;102304.47;;;14.04;60.33
3294;BME280;1659;51.470;6.770;2022-07-06T01:37:27;102295.66;;;14.02;60.27
3294;BME280;1659;51.470;6.770;2022-07-06T01:39:53;102285.88;;;14.02;60.06
3294;BME280;1659;51.470;6.770;2022-07-06T01:42:23;102284.09;;;14.03;60.28
3294;BME280;1659;51.470;6.770;2022-07-06T01:44:50;102286.75;;;14.04;60.10
3294;BME280;1659;51.470;6.770;2022-07-06T01:47:16;102280.56;;;14.05;60.27
3294;BME280;1659;51.470;6.770;2022-07-06T01:49:43;102286.75;;;14.06;60.34
3294;BME280;1659;51.470;6.770;2022-07-06T01:52:09;102288.53;;;14.05;60.22
3294;BME280;1659;51.470;6.770;2022-07-06T01:54:37;102288.53;;;14.05;60.50
3294;BME280;1659;51.470;6.770;2022-07-06T01:57:04;102282.28;;;14.06;60.77
3294;BME280;1659;51.470;6.770;2022-07-06T01:59:31;102287.59;;;14.08;60.66
3294;BME280;1659;51.470;6.770;2022-07-06T02:01:58;102281.41;;;14.09;60.48
3294;BME280;1659;51.470;6.770;2022-07-06T02:04:24;102284.94;;;14.08;60.98
3294;BME280;1659;51.470;6.770;2022-07-06T02:06:51;102284.06;;;14.07;61.07
3294;BME280;1659;51.470;6.770;2022-07-06T02:09:17;102279.66;;;14.05;60.83
3294;BME280;1659;51.470;6.770;2022-07-06T02:11:45;102284.09;;;14.03;61.17
3294;BME280;1659;51.470;6.770;2022-07-06T02:14:12;102277.03;;;14.02;61.01
3294;BME280;1659;51.470;6.770;2022-07-06T02:16:38;102280.59;;;13.97;60.91
3294;BME280;1659;51.470;6.770;2022-07-06T02:19:05;102281.53;;;13.92;61.03
3294;BME280;1659;51.470;6.770;2022-07-06T02:21:31;102283.34;;;13.87;61.38
3294;BME280;1659;51.470;6.770;2022-07-06T02:23:58;102284.28;;;13.83;61.76
3294;BME280;1659;51.470;6.770;2022-07-06T02:26:26;102279.00;;;13.76;61.66
3294;BME280;1659;51.470;6.770;2022-07-06T02:28:54;102276.41;;;13.72;61.83
3294;BME280;1659;51.470;6.770;2022-07-06T02:31:20;102273.78;;;13.64;62.19
3294;BME280;1659;51.470;6.770;2022-07-06T02:33:47;102271.19;;;13.58;62.34
3294;BME280;1659;51.470;6.770;2022-07-06T02:36:13;102275.66;;;13.51;62.13
3294;BME280;1659;51.470;6.770;2022-07-06T02:38:40;102276.59;;;13.46;62.38
3294;BME280;1659;51.470;6.770;2022-07-06T02:41:07;102278.38;;;13.42;62.52
3294;BME280;1659;51.470;6.770;2022-07-06T02:43:33;102275.72;;;13.40;62.77
3294;BME280;1659;51.470;6.770;2022-07-06T02:46:01;102281.06;;;13.39;62.60
3294;BME280;1659;51.470;6.770;2022-07-06T02:48:28;102286.38;;;13.36;62.71
3294;BME280;1659;51.470;6.770;2022-07-06T02:50:55;102286.38;;;13.34;63.24
3294;BME280;1659;51.470;6.770;2022-07-06T02:53:21;102280.19;;;13.34;63.28
3294;BME280;1659;51.470;6.770;2022-07-06T02:55:48;102282.84;;;13.32;63.07
3294;BME280;1659;51.470;6.770;2022-07-06T02:58:14;102292.59;;;13.32;63.26
3294;BME280;1659;51.470;6.770;2022-07-06T03:00:41;102286.38;;;13.31;63.10
3294;BME280;1659;51.470;6.770;2022-07-06T03:03:09;102290.78;;;13.29;63.31
3294;BME280;1659;51.470;6.770;2022-07-06T03:05:36;102293.47;;;13.26;63.52
3294;BME280;1659;51.470;6.770;2022-07-06T03:08:02;102290.84;;;13.25;63.57
3294;BME280;1659;51.470;6.770;2022-07-06T03:10:29;102297.91;;;13.22;63.55
3294;BME280;1659;51.470;6.770;2022-07-06T03:12:56;102294.38;;;13.20;63.73
3294;BME280;1659;51.470;6.770;2022-07-06T03:15:22;102297.94;;;13.21;63.71
3294;BME280;1659;51.470;6.770;2022-07-06T03:17:49;102309.44;;;13.20;63.69
3294;BME280;1659;51.470;6.770;2022-07-06T03:20:17;102305.03;;;13.14;63.92
3294;BME280;1659;51.470;6.770;2022-07-06T03:22:44;102304.19;;;13.11;64.51
3294;BME280;1659;51.470;6.770;2022-07-06T03:25:10;102310.38;;;13.07;64.24
3294;BME280;1659;51.470;6.770;2022-07-06T03:27:37;102301.53;;;13.06;64.19
3294;BME280;1659;51.470;6.770;2022-07-06T03:30:04;102303.31;;;13.04;64.58
3294;BME280;1659;51.470;6.770;2022-07-06T03:32:31;102297.16;;;13.00;64.24
3294;BME280;1659;51.470;6.770;2022-07-06T03:34:57;102294.50;;;13.00;64.72
3294;BME280;1659;51.470;6.770;2022-07-06T03:37:25;102294.50;;;13.00;64.42
3294;BME280;1659;51.470;6.770;2022-07-06T03:39:52;102295.38;;;13.01;64.67
3294;BME280;1659;51.470;6.770;2022-07-06T03:42:18;102302.44;;;13.02;64.69
3294;BME280;1659;51.470;6.770;2022-07-06T03:44:46;102305.97;;;13.04;64.72
3294;BME280;1659;51.470;6.770;2022-07-06T03:47:13;102294.44;;;13.07;64.90
3294;BME280;1659;51.470;6.770;2022-07-06T03:49:41;102304.19;;;13.09;65.10
3294;BME280;1659;51.470;6.770;2022-07-06T03:52:07;102301.47;;;13.14;65.09
3294;BME280;1659;51.470;6.770;2022-07-06T03:54:35;102299.69;;;13.23;65.16
3294;BME280;1659;51.470;6.770;2022-07-06T03:57:02;102301.44;;;13.32;65.20
3294;BME280;1659;51.470;6.770;2022-07-06T03:59:29;102304.94;;;13.40;65.09
3294;BME280;1659;51.470;6.770;2022-07-06T04:01:56;102309.31;;;13.48;64.80
3294;BME280;1659;51.470;6.770;2022-07-06T04:04:22;102309.25;;;13.57;64.84
3294;BME280;1659;51.470;6.770;2022-07-06T04:06:49;102310.97;;;13.67;65.23
3294;BME280;1659;51.470;6.770;2022-07-06T04:09:15;102304.69;;;13.76;64.92
3294;BME280;1659;51.470;6.770;2022-07-06T04:11:43;102306.41;;;13.86;64.95
3294;BME280;1659;51.470;6.770;2022-07-06T04:14:10;102303.69;;;13.92;64.76
3294;BME280;1659;51.470;6.770;2022-07-06T04:16:36;102311.59;;;14.00;64.72
3294;BME280;1659;51.470;6.770;2022-07-06T04:19:03;102302.72;;;14.03;64.92
3294;BME280;1659;51.470;6.770;2022-07-06T04:21:29;102306.19;;;14.09;64.72
3294;BME280;1659;51.470;6.770;2022-07-06T04:23:56;102308.84;;;14.14;64.89
3294;BME280;1659;51.470;6.770;2022-07-06T04:26:23;102309.66;;;14.21;64.62
3294;BME280;1659;51.470;6.770;2022-07-06T04:28:51;102306.03;;;14.28;64.69
3294;BME280;1659;51.470;6.770;2022-07-06T04:31:17;102306.91;;;14.31;64.84
3294;BME280;1659;51.470;6.770;2022-07-06T04:33:44;102313.03;;;14.38;64.69
3294;BME280;1659;51.470;6.770;2022-07-06T04:36:10;102308.50;;;14.45;64.28
3294;BME280;1659;51.470;6.770;2022-07-06T04:38:37;102312.94;;;14.49;64.27
3294;BME280;1659;51.470;6.770;2022-07-06T04:41:04;102298.66;;;14.54;64.33
3294;BME280;1659;51.470;6.770;2022-07-06T04:43:30;102303.03;;;14.63;64.54
3294;BME280;1659;51.470;6.770;2022-07-06T04:45:58;102302.97;;;14.69;64.41
3294;BME280;1659;51.470;6.770;2022-07-06T04:48:26;102297.56;;;14.79;64.32
3294;BME280;1659;51.470;6.770;2022-07-06T04:50:53;102296.59;;;14.83;64.12
3294;BME280;1659;51.470;6.770;2022-07-06T04:53:20;102297.41;;;14.91;64.26
3294;BME280;1659;51.470;6.770;2022-07-06T04:55:46;102299.06;;;15.00;64.01
3294;BME280;1659;51.470;6.770;2022-07-06T04:58:13;102298.06;;;15.10;63.86
3294;BME280;1659;51.470;6.770;2022-07-06T05:00:39;102298.78;;;15.20;63.54
3294;BME280;1659;51.470;6.770;2022-07-06T05:03:07;102298.63;;;15.30;63.39
3294;BME280;1659;51.470;6.770;2022-07-06T05:05:34;102290.56;;;15.38;63.35
3294;BME280;1659;51.470;6.770;2022-07-06T05:08:00;102290.41;;;15.49;63.16
3294;BME280;1659;51.470;6.770;2022-07-06T05:10:27;102289.34;;;15.61;63.11
3294;BME280;1659;51.470;6.770;2022-07-06T05:12:54;102289.22;;;15.68;62.50
3294;BME280;1659;51.470;6.770;2022-07-06T05:15:21;102290.00;;;15.74;62.65
3294;BME280;1659;51.470;6.770;2022-07-06T05:17:48;102300.56;;;15.83;62.52
3294;BME280;1659;51.470;6.770;2022-07-06T05:20:16;102298.66;;;15.90;62.49
3294;BME280;1659;51.470;6.770;2022-07-06T05:22:42;102302.97;;;15.98;62.27
3294;BME280;1659;51.470;6.770;2022-07-06T05:25:09;102302.75;;;16.11;62.02
3294;BME280;1659;51.470;6.770;2022-07-06T05:27:36;102299.06;;;16.19;62.07
3294;BME280;1659;51.470;6.770;2022-07-06T05:30:03;102305.16;;;16.26;61.98
3294;BME280;1659;51.470;6.770;2022-07-06T05:32:30;102299.66;;;16.35;61.81
3294;BME280;1659;51.470;6.770;2022-07-06T05:34:56;102304.84;;;16.45;61.65
3294;BME280;1659;51.470;6.770;2022-07-06T05:37:24;102311.88;;;16.49;61.58
3294;BME280;1659;51.470;6.770;2022-07-06T05:39:51;102309.00;;;16.58;61.47
3294;BME280;1659;51.470;6.770;2022-07-06T05:42:17;102317.75;;;16.66;61.31
3294;BME280;1659;51.470;6.770;2022-07-06T05:44:44;102310.44;;;16.77;61.07
3294;BME280;1659;51.470;6.770;2022-07-06T05:47:11;102304.94;;;16.87;60.84
3294;BME280;1659;51.470;6.770;2022-07-06T05:49:55;102312.94;;;16.87;60.83
3294;BME280;1659;51.470;6.770;2022-07-06T05:52:42;102322.66;;;16.89;60.88
3294;BME280;1659;51.470;6.770;2022-07-06T05:55:10;102325.31;;;16.91;60.78
3294;BME280;1659;51.470;6.770;2022-07-06T05:57:37;102324.41;;;16.92;60.87
3294;BME280;1659;51.470;6.770;2022-07-06T06:00:05;102329.59;;;16.99;60.73
3294;BME280;1659;51.470;6.770;2022-07-06T06:02:41;102327.69;;;17.05;60.54
3294;BME280;1659;51.470;6.770;2022-07-06T06:05:09;102327.44;;;17.17;60.37
3294;BME280;1659;51.470;6.770;2022-07-06T06:07:36;102323.69;;;17.26;60.17
3294;BME280;1659;51.470;6.770;2022-07-06T06:10:06;102331.75;;;17.24;60.11
3294;BME280;1659;51.470;6.770;2022-07-06T06:12:33;102329.06;;;17.24;60.13
3294;BME280;1659;51.470;6.770;2022-07-06T06:15:00;102328.16;;;17.25;60.08
3294;BME280;1659;51.470;6.770;2022-07-06T06:17:27;102334.44;;;17.23;60.05
3294;BME280;1659;51.470;6.770;2022-07-06T06:19:53;102337.88;;;17.28;60.04
3294;BME280;1659;51.470;6.770;2022-07-06T06:22:20;102335.41;;;17.59;59.31
3294;BME280;1659;51.470;6.770;2022-07-06T06:24:47;102336.19;;;17.64;58.79
3294;BME280;1659;51.470;6.770;2022-07-06T06:27:15;102328.16;;;17.64;59.25
3294;BME280;1659;51.470;6.770;2022-07-06T06:29:41;102328.16;;;17.64;59.19
3294;BME280;1659;51.470;6.770;2022-07-06T06:32:10;102337.91;;;17.68;59.06
3294;BME280;1659;51.470;6.770;2022-07-06T06:34:36;102335.09;;;17.73;59.04
3294;BME280;1659;51.470;6.770;2022-07-06T06:37:03;102327.91;;;17.75;58.75
3294;BME280;1659;51.470;6.770;2022-07-06T06:39:30;102327.00;;;17.76;58.84
3294;BME280;1659;51.470;6.770;2022-07-06T06:41:58;102330.56;;;17.75;58.90
3294;BME280;1659;51.470;6.770;2022-07-06T06:44:26;102332.34;;;17.76;58.83
3294;BME280;1659;51.470;6.770;2022-07-06T06:46:53;102330.41;;;17.83;58.69
3294;BME280;1659;51.470;6.770;2022-07-06T06:49:20;102332.81;;;17.95;58.43
3294;BME280;1659;51.470;6.770;2022-07-06T06:51:46;102334.38;;;18.04;58.10
3294;BME280;1659;51.470;6.770;2022-07-06T06:54:13;102332.34;;;18.14;58.00
3294;BME280;1659;51.470;6.770;2022-07-06T06:56:39;102332.97;;;18.25;57.69
3294;BME280;1659;51.470;6.770;2022-07-06T06:59:06;102336.44;;;18.28;57.42
3294;BME280;1659;51.470;6.770;2022-07-06T07:01:34;102337.16;;;18.35;57.25
3294;BME280;1659;51.470;6.770;2022-07-06T07:04:01;102335.09;;;18.45;56.94
3294;BME280;1659;51.470;6.770;2022-07-06T07:06:27;102343.03;;;18.49;56.71
3294;BME280;1659;51.470;6.770;2022-07-06T07:08:54;102338.34;;;18.58;56.75
3294;BME280;1659;51.470;6.770;2022-07-06T07:11:21;102349.50;;;18.74;56.21
3294;BME280;1659;51.470;6.770;2022-07-06T07:13:48;102341.13;;;18.88;55.95
3294;BME280;1659;51.470;6.770;2022-07-06T07:16:15;102348.56;;;19.08;55.19
3294;BME280;1659;51.470;6.770;2022-07-06T07:18:43;102349.78;;;19.27;54.92
3294;BME280;1659;51.470;6.770;2022-07-06T07:21:10;102355.47;;;19.46;54.25
3294;BME280;1659;51.470;6.770;2022-07-06T07:23:37;102351.00;;;19.47;54.31
3294;BME280;1659;51.470;6.770;2022-07-06T07:26:03;102345.34;;;19.56;54.13
3294;BME280;1659;51.470;6.770;2022-07-06T07:28:30;102343.66;;;19.82;53.67
3294;BME280;1659;51.470;6.770;2022-07-06T07:30:56;102348.31;;;20.03;53.23
3294;BME280;1659;51.470;6.770;2022-07-06T07:33:23;102345.38;;;20.11;53.00
3294;BME280;1659;51.470;6.770;2022-07-06T07:35:51;102345.94;;;20.21;52.63
3294;BME280;1659;51.470;6.770;2022-07-06T07:38:17;102357.19;;;20.32;52.68
3294;BME280;1659;51.470;6.770;2022-07-06T07:40:44;102348.94;;;20.38;52.64
3294;BME280;1659;51.470;6.770;2022-07-06T07:43:10;102349.53;;;20.46;52.50
3294;BME280;1659;51.470;6.770;2022-07-06T07:45:37;102347.63;;;20.50;51.92
3294;BME280;1659;51.470;6.770;2022-07-06T07:48:04;102351.03;;;20.80;51.58
3294;BME280;1659;51.470;6.770;2022-07-06T07:50:31;102351.09;;;21.04;51.15
3294;BME280;1659;51.470;6.770;2022-07-06T07:52:59;102353.00;;;22.14;48.80
3294;BME280;1659;51.470;6.770;2022-07-06T07:55:26;102352.16;;;22.75;47.64
3294;BME280;1659;51.470;6.770;2022-07-06T07:57:52;102352.69;;;23.04;46.93
3294;BME280;1659;51.470;6.770;2022-07-06T08:00:19;102344.47;;;23.64;45.86
3294;BME280;1659;51.470;6.770;2022-07-06T08:02:46;102333.66;;;24.54;44.65
3294;BME280;1659;51.470;6.770;2022-07-06T08:05:13;102335.97;;;25.44;42.96
3294;BME280;1659;51.470;6.770;2022-07-06T08:07:41;102331.41;;;25.45;43.08
3294;BME280;1659;51.470;6.770;2022-07-06T08:10:09;102336.13;;;24.92;43.87
3294;BME280;1659;51.470;6.770;2022-07-06T08:12:36;102335.69;;;24.31;44.87
3294;BME280;1659;51.470;6.770;2022-07-06T08:15:03;102342.66;;;23.64;45.90
3294;BME280;1659;51.470;6.770;2022-07-06T08:17:30;102350.19;;;22.99;46.66
3294;BME280;1659;51.470;6.770;2022-07-06T08:19:57;102350.91;;;22.42;47.56
3294;BME280;1659;51.470;6.770;2022-07-06T08:22:24;102343.78;;;22.41;47.12
3294;BME280;1659;51.470;6.770;2022-07-06T08:24:58;102346.22;;;22.25;47.13
3294;BME280;1659;51.470;6.770;2022-07-06T08:27:26;102340.56;;;22.11;47.42
3294;BME280;1659;51.470;6.770;2022-07-06T08:29:52;102337.75;;;21.92;47.00
3294;BME280;1659;51.470;6.770;2022-07-06T08:32:19;102343.81;;;21.97;46.62
3294;BME280;1659;51.470;6.770;2022-07-06T08:34:46;102348.78;;;21.86;46.66
3294;BME280;1659;51.470;6.770;2022-07-06T08:37:13;102337.44;;;21.56;47.05
3294;BME280;1659;51.470;6.770;2022-07-06T08:39:39;102339.31;;;21.30;47.61
3294;BME280;1659;51.470;6.770;2022-07-06T08:42:07;102331.72;;;21.18;47.54
3294;BME280;1659;51.470;6.770;2022-07-06T08:44:36;102336.81;;;21.02;47.68
3294;BME280;1659;51.470;6.770;2022-07-06T08:47:05;102340.00;;;20.88;47.76
3294;BME280;1659;51.470;6.770;2022-07-06T08:49:32;102336.19;;;20.70;47.77
3294;BME280;1659;51.470;6.770;2022-07-06T08:52:00;102339.38;;;20.54;47.77
3294;BME280;1659;51.470;6.770;2022-07-06T08:54:27;102348.66;;;20.46;47.79
3294;BME280;1659;51.470;6.770;2022-07-06T08:56:54;102348.78;;;20.43;47.60
3294;BME280;1659;51.470;6.770;2022-07-06T08:59:21;102350.56;;;20.42;47.29
3294;BME280;1659;51.470;6.770;2022-07-06T09:01:49;102342.41;;;20.45;47.06
3294;BME280;1659;51.470;6.770;2022-07-06T09:04:18;102345.56;;;20.56;46.75
3294;BME280;1659;51.470;6.770;2022-07-06T09:06:49;102351.25;;;20.74;46.10
3294;BME280;1659;51.470;6.770;2022-07-06T09:09:19;102345.00;;;20.73;45.93
3294;BME280;1659;51.470;6.770;2022-07-06T09:11:47;102340.09;;;20.60;46.14
3294;BME280;1659;51.470;6.770;2022-07-06T09:14:14;102337.00;;;20.47;46.38
3294;BME280;1659;51.470;6.770;2022-07-06T09:16:41;102345.19;;;20.42;46.42
3294;BME280;1659;51.470;6.770;2022-07-06T09:19:10;102342.22;;;20.25;46.50
3294;BME280;1659;51.470;6.770;2022-07-06T09:21:37;102347.88;;;20.17;46.63
3294;BME280;1659;51.470;6.770;2022-07-06T09:24:08;102343.47;;;20.14;46.67
3294;BME280;1659;51.470;6.770;2022-07-06T09:26:35;102340.00;;;20.11;46.78
3294;BME280;1659;51.470;6.770;2022-07-06T09:29:02;102334.63;;;20.88;45.51
3294;BME280;1659;51.470;6.770;2022-07-06T09:31:29;102333.41;;;21.20;45.01
3294;BME280;1659;51.470;6.770;2022-07-06T09:33:56;102323.41;;;21.24;44.77
3294;BME280;1659;51.470;6.770;2022-07-06T09:36:40;102324.31;;;21.48;44.62
3294;BME280;1659;51.470;6.770;2022-07-06T09:39:31;102330.72;;;22.32;43.33
3294;BME280;1659;51.470;6.770;2022-07-06T09:41:59;102327.19;;;22.71;42.71
3294;BME280;1659;51.470;6.770;2022-07-06T09:44:27;102326.50;;;22.66;42.89
3294;BME280;1659;51.470;6.770;2022-07-06T09:46:56;102319.13;;;22.30;43.12
3294;BME280;1659;51.470;6.770;2022-07-06T09:49:24;102321.47;;;22.38;42.99
3294;BME280;1659;51.470;6.770;2022-07-06T09:51:55;102328.06;;;23.11;41.97
3294;BME280;1659;51.470;6.770;2022-07-06T09:54:22;102324.59;;;24.03;40.96
3294;BME280;1659;51.470;6.770;2022-07-06T09:56:50;102322.06;;;24.85;40.03
3294;BME280;1659;51.470;6.770;2022-07-06T09:59:18;102323.34;;;25.12;39.38
3294;BME280;1659;51.470;6.770;2022-07-06T10:01:46;102318.06;;;25.26;38.86
3294;BME280;1659;51.470;6.770;2022-07-06T10:04:13;102319.19;;;25.38;38.36
3294;BME280;1659;51.470;6.770;2022-07-06T10:06:42;102312.47;;;25.29;38.04
3294;BME280;1659;51.470;6.770;2022-07-06T10:09:14;102314.16;;;25.14;37.72
3294;BME280;1659;51.470;6.770;2022-07-06T10:11:44;102322.88;;;24.70;38.14
3294;BME280;1659;51.470;6.770;2022-07-06T10:14:14;102317.72;;;24.48;38.50
3294;BME280;1659;51.470;6.770;2022-07-06T10:16:45;102330.94;;;24.37;38.64
3294;BME280;1659;51.470;6.770;2022-07-06T10:19:13;102327.81;;;24.09;38.54
3294;BME280;1659;51.470;6.770;2022-07-06T10:21:40;102332.81;;;23.82;39.03
3294;BME280;1659;51.470;6.770;2022-07-06T10:24:08;102323.97;;;23.60;39.14
3294;BME280;1659;51.470;6.770;2022-07-06T10:26:38;102325.59;;;23.26;39.52
3294;BME280;1659;51.470;6.770;2022-07-06T10:29:06;102323.22;;;22.99;39.49
3294;BME280;1659;51.470;6.770;2022-07-06T10:31:33;102335.81;;;22.79;39.69
3294;BME280;1659;51.470;6.770;2022-07-06T10:34:02;102329.06;;;22.90;39.44
3294;BME280;1659;51.470;6.770;2022-07-06T10:36:30;102327.50;;;23.24;38.98
3294;BME280;1659;51.470;6.770;2022-07-06T10:38:57;102326.03;;;23.35;38.63
3294;BME280;1659;51.470;6.770;2022-07-06T10:41:45;102313.59;;;23.88;37.92
3294;BME280;1659;51.470;6.770;2022-07-06T10:44:17;102308.69;;;24.31;37.43
3294;BME280;1659;51.470;6.770;2022-07-06T10:46:52;102312.72;;;24.40;37.32
3294;BME280;1659;51.470;6.770;2022-07-06T10:49:19;102325.59;;;24.35;37.23
3294;BME280;1659;51.470;6.770;2022-07-06T10:51:47;102320.06;;;24.21;37.68
3294;BME280;1659;51.470;6.770;2022-07-06T10:54:15;102316.22;;;24.25;37.58
3294;BME280;1659;51.470;6.770;2022-07-06T10:56:45;102317.72;;;24.30;37.36
3294;BME280;1659;51.470;6.770;2022-07-06T10:59:13;102318.84;;;24.26;37.23
3294;BME280;1659;51.470;6.770;2022-07-06T11:01:40;102320.28;;;24.34;36.96
3294;BME280;1659;51.470;6.770;2022-07-06T11:04:14;102310.25;;;24.36;37.11
3294;BME280;1659;51.470;6.770;2022-07-06T11:06:41;102316.78;;;24.31;36.86
3294;BME280;1659;51.470;6.770;2022-07-06T11:09:10;102321.63;;;24.25;36.80
3294;BME280;1659;51.470;6.770;2022-07-06T11:11:39;102319.63;;;24.46;36.79
3294;BME280;1659;51.470;6.770;2022-07-06T11:14:09;102308.81;;;24.63;36.64
3294;BME280;1659;51.470;6.770;2022-07-06T11:16:38;102303.19;;;25.17;35.86
3294;BME280;1659;51.470;6.770;2022-07-06T11:19:11;102298.22;;;25.57;35.51
3294;BME280;1659;51.470;6.770;2022-07-06T11:21:40;102297.94;;;25.94;34.83
3294;BME280;1659;51.470;6.770;2022-07-06T11:24:08;102303.78;;;26.02;35.02
3294;BME280;1659;51.470;6.770;2022-07-06T11:26:36;102304.50;;;25.58;35.09
3294;BME280;1659;51.470;6.770;2022-07-06T11:29:04;102305.53;;;25.23;35.60
3294;BME280;1659;51.470;6.770;2022-07-06T11:31:34;102308.09;;;24.93;35.64
3294;BME280;1659;51.470;6.770;2022-07-06T11:34:02;102308.19;;;24.92;35.81
3294;BME280;1659;51.470;6.770;2022-07-06T11:36:29;102307.56;;;24.86;36.03
3294;BME280;1659;51.470;6.770;2022-07-06T11:38:56;102300.41;;;24.52;36.11
3294;BME280;1659;51.470;6.770;2022-07-06T11:41:22;102309.03;;;24.25;36.61
3294;BME280;1659;51.470;6.770;2022-07-06T11:43:49;102314.16;;;23.95;36.92
3294;BME280;1659;51.470;6.770;2022-07-06T11:46:24;102310.34;;;23.82;36.91
3294;BME280;1659;51.470;6.770;2022-07-06T11:48:54;102307.31;;;23.69;37.09
3294;BME280;1659;51.470;6.770;2022-07-06T11:51:22;102314.34;;;23.73;37.07
3294;BME280;1659;51.470;6.770;2022-07-06T11:53:52;102302.78;;;23.69;37.31
3294;BME280;1659;51.470;6.770;2022-07-06T11:56:18;102292.63;;;23.93;36.85
3294;BME280;1659;51.470;6.770;2022-07-06T11:58:48;102302.09;;;24.20;36.50
3294;BME280;1659;51.470;6.770;2022-07-06T12:01:15;102292.16;;;24.55;36.07
3294;BME280;1659;51.470;6.770;2022-07-06T12:03:42;102295.81;;;24.87;35.82
3294;BME280;1659;51.470;6.770;2022-07-06T12:06:16;102297.22;;;25.11;35.17
3294;BME280;1659;51.470;6.770;2022-07-06T12:08:45;102282.91;;;25.09;35.50
3294;BME280;1659;51.470;6.770;2022-07-06T12:11:17;102279.97;;;24.97;34.99
3294;BME280;1659;51.470;6.770;2022-07-06T12:13:44;102281.25;;;24.90;35.26
3294;BME280;1659;51.470;6.770;2022-07-06T12:16:12;102281.97;;;25.10;34.90
3294;BME280;1659;51.470;6.770;2022-07-06T12:18:40;102279.69;;;25.18;34.79
3294;BME280;1659;51.470;6.770;2022-07-06T12:21:08;102281.06;;;25.42;34.74
3294;BME280;1659;51.470;6.770;2022-07-06T12:23:40;102276.91;;;25.67;34.49
3294;BME280;1659;51.470;6.770;2022-07-06T12:26:08;102274.00;;;25.70;34.43
3294;BME280;1659;51.470;6.770;2022-07-06T12:28:35;102275.97;;;25.82;34.32
3294;BME280;1659;51.470;6.770;2022-07-06T12:31:02;102266.88;;;25.99;34.19
3294;BME280;1659;51.470;6.770;2022-07-06T12:33:29;102265.97;;;26.29;33.77
3294;BME280;1659;51.470;6.770;2022-07-06T12:35:56;102254.69;;;26.37;33.56
3294;BME280;1659;51.470;6.770;2022-07-06T12:38:24;102258.75;;;26.73;33.26
3294;BME280;1659;51.470;6.770;2022-07-06T12:40:53;102260.50;;;26.88;32.95
3294;BME280;1659;51.470;6.770;2022-07-06T12:43:35;102262.13;;;27.05;32.61
3294;BME280;1659;51.470;6.770;2022-07-06T12:46:23;102245.13;;;27.30;32.20
3294;BME280;1659;51.470;6.770;2022-07-06T12:48:52;102251.28;;;27.47;32.12
3294;BME280;1659;51.470;6.770;2022-07-06T12:51:19;102243.75;;;27.78;31.70
3294;BME280;1659;51.470;6.770;2022-07-06T12:53:45;102241.69;;;28.21;31.20
3294;BME280;1659;51.470;6.770;2022-07-06T12:56:14;102236.78;;;28.39;30.60
3294;BME280;1659;51.470;6.770;2022-07-06T12:58:59;102239.28;;;28.30;30.80
3294;BME280;1659;51.470;6.770;2022-07-06T13:01:27;102233.09;;;28.02;30.82
3294;BME280;1659;51.470;6.770;2022-07-06T13:03:54;102236.81;;;27.46;31.31
3294;BME280;1659;51.470;6.770;2022-07-06T13:06:31;102238.75;;;27.31;31.78
3294;BME280;1659;51.470;6.770;2022-07-06T13:08:58;102228.75;;;27.18;31.59
3294;BME280;1659;51.470;6.770;2022-07-06T13:11:26;102233.56;;;27.27;31.49
3294;BME280;1659;51.470;6.770;2022-07-06T13:13:55;102220.25;;;27.64;30.90